Time;durP1;ratioP1;P1;durP2;ratioP2;P2;SDS_P1;SDS_P2;PMS_P1;PMS_P2;Temp;Humidity;BMP_temperature;BMP_pressure;BME280_temperature;BME280_humidity;BME280_pressure;Samples;Min_cycle;Max_cycle;Signal;HPM_P1;HPM_P2
2022/01/09 00:00:24;;;;;;;7.13;5.15;;;;;;;5.07;99.68;98710.94;5043555;28;20036;-60
2022/01/09 00:02:50;;;;;;;11.50;5.43;;;;;;;5.17;99.60;98727.28;5043264;28;20067;-61
2022/01/09 00:05:16;;;;;;;11.25;6.07;;;;;;;5.21;98.96;98733.84;5049798;28;20149;-61
2022/01/09 00:07:42;;;;;;;6.90;5.47;;;;;;;5.30;98.65;98747.72;5044360;28;20473;-61
2022/01/09 00:10:08;;;;;;;9.50;6.13;;;;;;;5.37;98.15;98748.63;5047782;28;20092;-61
2022/01/09 00:12:34;;;;;;;8.15;4.25;;;;;;;5.50;96.00;98768.22;5044149;28;20384;-60
2022/01/09 00:15:00;;;;;;;5.47;3.20;;;;;;;5.66;93.93;98788.25;5047774;28;20036;-60
2022/01/09 00:17:25;;;;;;;5.70;3.28;;;;;;;5.62;93.49;98813.28;5047402;28;20033;-59
2022/01/09 00:19:50;;;;;;;3.05;2.67;;;;;;;5.65;92.52;98818.19;5046922;28;20061;-60
2022/01/09 00:22:19;;;;;;;5.13;2.95;;;;;;;5.47;94.39;98827.22;5043381;28;20044;-59
2022/01/09 00:24:44;;;;;;;2.63;2.10;;;;;;;5.52;92.43;98835.41;5048263;28;20548;-60
2022/01/09 00:27:10;;;;;;;4.10;2.25;;;;;;;5.39;93.01;98840.44;5047308;28;20159;-61
2022/01/09 00:29:35;;;;;;;5.38;2.75;;;;;;;5.50;92.75;98874.22;5047998;28;20021;-60
2022/01/09 00:32:00;;;;;;;7.80;2.72;;;;;;;5.60;91.39;98857.34;5045096;28;20416;-60
2022/01/09 00:34:25;;;;;;;8.52;2.38;;;;;;;5.42;91.83;98869.00;5045831;28;20074;-59
2022/01/09 00:36:51;;;;;;;8.25;2.35;;;;;;;5.36;92.68;98865.28;5047993;28;20040;-60
2022/01/09 00:39:16;;;;;;;12.65;2.75;;;;;;;5.38;92.73;98880.88;5046708;28;20143;-60
2022/01/09 00:41:41;;;;;;;10.48;2.90;;;;;;;5.43;93.07;98888.22;5044327;28;20052;-60
2022/01/09 00:44:07;;;;;;;13.02;3.30;;;;;;;5.38;92.25;98891.38;5045445;28;20377;-60
2022/01/09 00:46:33;;;;;;;16.80;3.58;;;;;;;5.31;91.49;98903.56;5048565;28;20045;-60
2022/01/09 00:49:03;;;;;;;18.65;4.45;;;;;;;5.29;92.08;98926.59;5047627;28;20036;-61
2022/01/09 00:51:28;;;;;;;16.95;3.47;;;;;;;5.35;91.83;98913.59;5053005;28;20036;-60
2022/01/09 00:53:53;;;;;;;22.33;5.05;;;;;;;5.28;90.27;98919.72;5055205;28;20392;-60
2022/01/09 00:56:18;;;;;;;21.70;4.03;;;;;;;5.23;91.90;98914.97;5052103;28;20487;-59
2022/01/09 00:58:44;;;;;;;19.80;4.90;;;;;;;5.32;90.63;98921.81;5055651;28;20037;-60
2022/01/09 01:01:09;;;;;;;26.15;4.00;;;;;;;5.06;92.23;98933.47;5050539;28;20025;-59
2022/01/09 01:03:34;;;;;;;17.77;4.20;;;;;;;5.19;91.25;98935.50;5048941;28;20728;-60
2022/01/09 01:06:00;;;;;;;20.25;3.70;;;;;;;5.17;92.13;98944.59;5056444;28;20082;-59
2022/01/09 01:08:25;;;;;;;27.35;4.45;;;;;;;5.14;91.88;98952.78;5056674;28;20084;-60
2022/01/09 01:10:50;;;;;;;18.15;3.45;;;;;;;5.18;91.46;98954.91;5043710;28;20095;-60
2022/01/09 01:13:16;;;;;;;17.85;3.42;;;;;;;5.18;92.16;98970.66;5050446;28;20033;-60
2022/01/09 01:15:41;;;;;;;24.33;3.97;;;;;;;5.10;91.90;98983.84;5051067;28;20037;-59
2022/01/09 01:18:06;;;;;;;22.25;3.30;;;;;;;5.07;92.07;98968.41;5045948;28;20033;-60
2022/01/09 01:20:32;;;;;;;21.75;4.35;;;;;;;5.06;90.67;98977.28;5049194;28;20064;-60
2022/01/09 01:22:58;;;;;;;17.08;3.63;;;;;;;5.07;89.97;98984.19;5049111;28;20048;-60
2022/01/09 01:25:25;;;;;;;15.00;3.55;;;;;;;5.12;90.08;99008.13;5052432;28;20028;-59
2022/01/09 01:27:50;;;;;;;16.13;3.75;;;;;;;5.22;89.25;99018.44;5046607;28;20029;-59
2022/01/09 01:30:16;;;;;;;13.07;2.92;;;;;;;5.17;87.93;99008.44;5044727;28;20030;-60
2022/01/09 01:32:42;;;;;;;21.92;4.25;;;;;;;5.16;88.84;99013.88;5045589;28;20158;-60
2022/01/09 01:35:09;;;;;;;15.63;3.92;;;;;;;5.14;89.42;99013.22;5053219;28;20079;-60
2022/01/09 01:37:38;;;;;;;16.25;2.72;;;;;;;5.13;89.35;99015.03;5045872;28;20040;-60
2022/01/09 01:40:05;;;;;;;18.20;3.83;;;;;;;5.09;90.35;99040.81;5045443;28;20130;-60
2022/01/09 01:42:30;;;;;;;23.10;3.55;;;;;;;5.06;91.10;99043.81;5051545;28;20035;-59
2022/01/09 01:44:55;;;;;;;17.20;3.20;;;;;;;5.10;91.35;99041.66;5049955;28;20108;-59
2022/01/09 01:47:21;;;;;;;17.35;3.60;;;;;;;5.10;90.52;99057.44;5048334;28;20033;-60
2022/01/09 01:49:47;;;;;;;32.92;4.25;;;;;;;5.06;91.22;99050.88;5049719;28;20036;-60
2022/01/09 01:52:15;;;;;;;23.52;3.38;;;;;;;5.18;89.30;99054.75;5053135;28;20036;-60
2022/01/09 01:54:42;;;;;;;23.10;4.65;;;;;;;5.20;88.85;99063.31;5052052;28;20082;-60
2022/01/09 01:57:08;;;;;;;26.52;4.20;;;;;;;5.13;90.25;99072.03;5052841;28;20021;-61
2022/01/09 01:59:33;;;;;;;19.33;4.10;;;;;;;5.10;90.22;99084.50;5051165;28;20617;-59
2022/01/09 02:01:58;;;;;;;26.08;4.75;;;;;;;5.05;91.39;99086.00;5053992;28;20510;-60
2022/01/09 02:04:24;;;;;;;31.92;5.00;;;;;;;5.06;91.12;99092.91;5052911;28;20033;-60
2022/01/09 02:06:49;;;;;;;35.42;5.78;;;;;;;5.10;91.75;99099.47;5056032;28;20388;-60
2022/01/09 02:09:14;;;;;;;31.73;5.13;;;;;;;5.09;92.14;99108.34;5051552;28;20128;-60
2022/01/09 02:11:39;;;;;;;29.42;4.80;;;;;;;5.14;91.67;99111.28;5053362;28;20028;-60
2022/01/09 02:14:05;;;;;;;32.47;4.85;;;;;;;5.12;91.80;99108.00;5051084;28;20598;-60
2022/01/09 02:16:30;;;;;;;28.33;4.80;;;;;;;5.15;91.67;99118.19;5047587;28;20033;-60
2022/01/09 02:18:58;;;;;;;36.38;6.57;;;;;;;5.15;91.78;99126.06;5045821;28;20487;-61
2022/01/09 02:21:25;;;;;;;25.08;4.90;;;;;;;5.18;91.41;99128.34;5053003;28;20083;-61
2022/01/09 02:23:51;;;;;;;30.00;4.90;;;;;;;5.30;90.00;99130.59;5053244;28;20065;-61
2022/01/09 02:26:18;;;;;;;31.20;5.38;;;;;;;5.23;91.12;99139.16;5049966;28;20114;-61
2022/01/09 02:28:44;;;;;;;26.58;4.50;;;;;;;5.26;89.98;99143.25;5050435;28;20472;-61
2022/01/09 02:31:10;;;;;;;29.05;4.78;;;;;;;5.28;90.31;99149.16;5047017;28;20555;-61
2022/01/09 02:33:35;;;;;;;24.77;4.57;;;;;;;5.28;90.66;99143.09;5051260;28;20060;-61
2022/01/09 02:36:00;;;;;;;13.45;3.33;;;;;;;5.31;89.72;99153.25;5046661;28;20033;-61
2022/01/09 02:38:26;;;;;;;33.30;5.50;;;;;;;5.18;91.20;99154.63;5048682;28;20452;-61
2022/01/09 02:40:53;;;;;;;35.00;5.55;;;;;;;5.25;90.37;99168.72;5049184;28;20025;-61
2022/01/09 02:43:20;;;;;;;25.20;4.18;;;;;;;5.23;90.53;99168.06;5047569;28;20580;-61
2022/01/09 02:45:49;;;;;;;26.85;4.03;;;;;;;5.34;89.78;99179.22;5046347;28;20023;-60
2022/01/09 02:48:15;;;;;;;23.05;4.80;;;;;;;5.30;89.85;99188.44;5047134;28;20055;-61
2022/01/09 02:50:50;;;;;;;27.13;4.85;;;;;;;5.29;90.08;99186.78;5043751;28;20029;-61
2022/01/09 02:53:20;;;;;;;27.70;4.82;;;;;;;5.23;89.33;99199.63;5052199;28;20024;-61
2022/01/09 02:55:48;;;;;;;19.13;3.25;;;;;;;5.42;88.97;99205.50;5048388;28;20053;-61
2022/01/09 02:58:13;;;;;;;29.20;4.50;;;;;;;5.24;88.99;99217.00;5051491;28;20051;-61
2022/01/09 03:00:42;;;;;;;23.42;4.43;;;;;;;5.25;89.33;99218.66;5041786;28;20033;-61
2022/01/09 03:03:08;;;;;;;22.88;3.88;;;;;;;5.27;88.42;99226.38;5049553;28;20738;-61
2022/01/09 03:05:34;;;;;;;16.98;3.20;;;;;;;5.29;87.77;99227.06;5047856;28;20061;-61
2022/01/09 03:08:00;;;;;;;19.65;3.65;;;;;;;5.23;88.87;99236.41;5045597;28;20068;-61
2022/01/09 03:10:26;;;;;;;25.58;4.22;;;;;;;5.20;88.49;99238.56;5040505;28;20036;-61
2022/01/09 03:12:53;;;;;;;13.98;3.97;;;;;;;5.31;86.61;99246.09;5053506;28;20029;-61
2022/01/09 03:15:18;;;;;;;23.30;3.33;;;;;;;5.27;87.55;99251.88;5050323;28;20052;-60
2022/01/09 03:17:44;;;;;;;17.55;3.55;;;;;;;5.29;86.75;99260.38;5049221;28;20472;-61
2022/01/09 03:20:16;;;;;;;19.40;3.13;;;;;;;5.29;86.58;99265.66;5045973;28;20473;-61
2022/01/09 03:22:41;;;;;;;23.02;4.03;;;;;;;5.13;86.65;99277.00;5049193;28;20033;-61
2022/01/09 03:25:07;;;;;;;17.50;3.47;;;;;;;5.13;86.42;99277.00;5050242;28;20350;-61
2022/01/09 03:27:32;;;;;;;16.80;3.70;;;;;;;5.17;86.21;99283.56;5049894;28;20078;-61
2022/01/09 03:29:59;;;;;;;25.23;3.85;;;;;;;5.10;85.49;99289.47;5049782;28;20032;-61
2022/01/09 03:32:24;;;;;;;11.93;2.85;;;;;;;5.16;85.64;99303.75;5049264;28;20451;-61
2022/01/09 03:34:49;;;;;;;18.80;2.92;;;;;;;5.18;85.44;99301.78;5045815;28;20063;-61
2022/01/09 03:37:15;;;;;;;16.30;3.05;;;;;;;5.07;85.56;99307.34;5047346;28;20074;-61
2022/01/09 03:39:40;;;;;;;17.35;3.90;;;;;;;5.01;85.60;99311.47;5050851;28;20048;-60
2022/01/09 03:42:05;;;;;;;20.52;3.20;;;;;;;5.13;84.42;99319.84;5048788;28;20029;-61
2022/01/09 03:44:31;;;;;;;15.82;3.25;;;;;;;5.12;84.36;99333.97;5047040;28;20469;-61
2022/01/09 03:46:56;;;;;;;18.17;3.05;;;;;;;5.02;84.55;99335.94;5050741;28;20664;-61
2022/01/09 03:49:22;;;;;;;13.90;2.92;;;;;;;5.13;83.37;99338.22;5048980;28;20078;-61
2022/01/09 03:51:50;;;;;;;23.40;3.50;;;;;;;5.00;84.79;99345.78;5050215;28;20449;-61
2022/01/09 03:54:17;;;;;;;15.55;3.20;;;;;;;5.06;83.81;99355.66;5050541;28;20436;-61
2022/01/09 03:56:42;;;;;;;15.10;2.95;;;;;;;4.99;84.18;99350.22;5050488;28;20057;-61
2022/01/09 03:59:08;;;;;;;20.75;4.53;;;;;;;4.95;84.29;99362.03;5046909;28;20072;-61
2022/01/09 04:01:33;;;;;;;16.02;3.40;;;;;;;5.01;84.54;99368.44;5046441;28;20029;-61
2022/01/09 04:03:58;;;;;;;14.48;2.80;;;;;;;5.02;84.56;99359.59;5047880;28;20562;-61
2022/01/09 04:06:24;;;;;;;12.18;2.85;;;;;;;5.02;83.61;99375.34;5051082;28;20033;-61
2022/01/09 04:08:52;;;;;;;20.52;3.45;;;;;;;4.90;83.88;99378.28;5044165;28;20039;-61
2022/01/09 04:11:23;;;;;;;23.30;3.90;;;;;;;4.92;83.47;99386.81;5046142;28;20033;-61
2022/01/09 04:13:49;;;;;;;15.25;2.72;;;;;;;5.00;83.70;99398.31;5048711;28;20061;-61
2022/01/09 04:16:14;;;;;;;14.88;3.22;;;;;;;4.96;82.83;99388.16;5043467;28;20021;-61
2022/01/09 04:18:39;;;;;;;17.60;3.40;;;;;;;4.91;82.81;99400.09;5050722;28;20504;-62
2022/01/09 04:21:05;;;;;;;11.52;2.60;;;;;;;5.02;82.43;99412.94;5051161;28;20041;-61
2022/01/09 04:23:30;;;;;;;16.00;3.15;;;;;;;4.95;83.01;99415.38;5049569;28;20044;-61
2022/01/09 04:25:55;;;;;;;20.83;3.50;;;;;;;4.75;83.95;99422.72;5050750;28;20037;-61
2022/01/09 04:28:21;;;;;;;21.20;3.47;;;;;;;4.60;85.36;99426.91;5050269;28;20044;-61
2022/01/09 04:30:46;;;;;;;14.50;2.63;;;;;;;4.57;85.17;99428.06;5047997;28;20024;-61
2022/01/09 04:33:11;;;;;;;18.85;3.10;;;;;;;4.59;84.77;99436.59;5047423;28;20051;-61
2022/01/09 04:35:38;;;;;;;22.52;3.15;;;;;;;4.64;85.13;99447.44;5045916;28;20056;-61
2022/01/09 04:38:04;;;;;;;17.55;3.10;;;;;;;4.63;84.35;99445.81;5049180;28;20514;-61
2022/01/09 04:40:29;;;;;;;22.15;3.88;;;;;;;4.49;85.36;99454.28;5049041;28;20029;-61
2022/01/09 04:42:58;;;;;;;22.48;4.03;;;;;;;4.47;86.02;99450.97;5052563;28;20512;-62
2022/01/09 04:45:25;;;;;;;25.52;3.72;;;;;;;4.47;84.88;99462.31;5048524;28;20033;-61
2022/01/09 04:47:51;;;;;;;19.13;3.60;;;;;;;4.41;85.93;99465.56;5048967;28;20033;-61
2022/01/09 04:50:27;;;;;;;21.33;3.55;;;;;;;4.49;85.27;99475.28;5047941;28;20055;-61
2022/01/09 04:52:59;;;;;;;24.27;3.40;;;;;;;4.41;85.52;99482.13;5051532;28;20107;-61
2022/01/09 04:55:25;;;;;;;20.05;4.35;;;;;;;4.46;84.48;99496.56;5049319;28;20373;-61
2022/01/09 04:57:51;;;;;;;17.58;2.90;;;;;;;4.45;84.48;99498.41;5047118;28;20037;-61
2022/01/09 05:00:16;;;;;;;22.80;3.40;;;;;;;4.38;85.80;99505.22;5043482;28;20031;-61
2022/01/09 05:02:42;;;;;;;15.50;3.25;;;;;;;4.32;85.72;99514.53;5038264;28;20046;-61
2022/01/09 05:05:11;;;;;;;19.35;4.15;;;;;;;4.24;85.93;99519.75;5047681;28;20040;-61
2022/01/09 05:07:37;;;;;;;21.00;3.10;;;;;;;4.30;85.40;99530.44;5046233;28;20464;-61
2022/01/09 05:10:04;;;;;;;20.17;3.28;;;;;;;4.28;86.27;99531.56;5046939;28;20956;-61
2022/01/09 05:12:30;;;;;;;20.52;3.55;;;;;;;4.29;86.28;99534.03;5045353;28;20465;-61
2022/01/09 05:14:55;;;;;;;11.77;2.70;;;;;;;4.26;86.45;99544.03;5047411;28;20036;-61
2022/01/09 05:17:20;;;;;;;23.45;3.60;;;;;;;4.29;86.20;99538.44;5049584;28;20492;-61
2022/01/09 05:19:47;;;;;;;14.55;2.45;;;;;;;4.30;85.03;99553.25;5049313;28;20032;-61
2022/01/09 05:22:13;;;;;;;19.63;3.35;;;;;;;4.38;85.69;99566.44;5048418;28;20115;-61
2022/01/09 05:24:38;;;;;;;17.42;3.13;;;;;;;4.40;85.85;99571.53;5048949;28;20466;-61
2022/01/09 05:27:03;;;;;;;21.88;3.88;;;;;;;4.32;87.17;99580.16;5048767;28;20028;-61
2022/01/09 05:29:29;;;;;;;13.02;3.17;;;;;;;4.43;87.64;99586.97;5048533;28;20078;-61
2022/01/09 05:31:54;;;;;;;18.63;3.42;;;;;;;4.25;88.45;99582.56;5046931;28;20021;-61
2022/01/09 05:34:20;;;;;;;10.45;2.65;;;;;;;4.44;86.19;99592.06;5050572;28;20040;-61
2022/01/09 05:36:45;;;;;;;13.82;2.67;;;;;;;4.30;86.64;99592.63;5047381;28;20037;-60
2022/01/09 05:39:11;;;;;;;11.50;2.75;;;;;;;4.35;87.00;99598.25;5051252;28;20063;-60
2022/01/09 05:41:38;;;;;;;17.02;3.15;;;;;;;4.14;88.17;99599.34;5053151;28;20033;-60
2022/01/09 05:44:04;;;;;;;18.73;2.72;;;;;;;4.11;88.75;99612.78;5053778;28;20025;-60
2022/01/09 05:46:29;;;;;;;16.33;3.22;;;;;;;3.95;90.22;99610.00;5047866;28;20029;-60
2022/01/09 05:48:54;;;;;;;19.73;3.55;;;;;;;3.82;92.00;99605.09;5054306;28;20029;-60
2022/01/09 05:51:20;;;;;;;25.25;3.72;;;;;;;3.81;92.11;99609.53;5046393;28;20036;-60
2022/01/09 05:53:45;;;;;;;25.00;3.70;;;;;;;3.77;93.43;99613.44;5052839;28;20510;-60
2022/01/09 05:56:10;;;;;;;24.60;4.50;;;;;;;3.75;92.97;99616.19;5051025;28;20044;-60
2022/01/09 05:58:36;;;;;;;24.25;4.22;;;;;;;3.73;93.52;99618.13;5061501;28;20036;-60
2022/01/09 06:01:03;;;;;;;18.55;4.00;;;;;;;3.72;93.65;99610.41;5051073;28;20051;-60
2022/01/09 06:03:28;;;;;;;21.30;4.15;;;;;;;3.81;92.44;99620.03;5047724;28;20047;-60
2022/01/09 06:05:53;;;;;;;15.93;4.13;;;;;;;3.84;91.81;99619.72;5050539;28;20036;-60
2022/01/09 06:08:19;;;;;;;21.63;3.92;;;;;;;3.83;92.50;99622.47;5053241;28;20044;-60
2022/01/09 06:10:44;;;;;;;22.75;3.88;;;;;;;3.85;91.30;99631.84;5052715;28;20029;-60
2022/01/09 06:13:09;;;;;;;19.25;3.58;;;;;;;3.89;91.39;99630.59;5053453;28;20033;-61
2022/01/09 06:15:35;;;;;;;23.77;3.90;;;;;;;3.88;90.89;99635.97;5047259;28;20472;-60
2022/01/09 06:18:00;;;;;;;22.45;3.92;;;;;;;3.92;90.42;99636.50;5050006;28;20036;-61
2022/01/09 06:20:25;;;;;;;22.92;3.97;;;;;;;3.92;90.20;99641.75;5054481;28;20033;-61
2022/01/09 06:22:51;;;;;;;20.50;4.10;;;;;;;3.92;90.75;99647.00;5051699;28;20033;-61
2022/01/09 06:25:16;;;;;;;17.27;3.65;;;;;;;3.97;89.78;99650.00;5051024;28;20021;-61
2022/01/09 06:27:42;;;;;;;19.38;3.72;;;;;;;3.90;90.91;99658.47;5050015;28;20025;-61
2022/01/09 06:30:08;;;;;;;21.17;3.88;;;;;;;3.94;90.62;99666.06;5055780;28;20029;-62
2022/01/09 06:32:33;;;;;;;24.70;3.97;;;;;;;3.88;90.91;99663.06;5043388;28;20032;-62
2022/01/09 06:34:59;;;;;;;30.05;4.15;;;;;;;3.92;90.59;99663.59;5050428;28;20430;-62
2022/01/09 06:37:24;;;;;;;24.02;3.55;;;;;;;3.88;91.03;99668.31;5044371;28;20083;-62
2022/01/09 06:39:49;;;;;;;21.02;3.80;;;;;;;3.99;89.80;99663.81;5048439;28;20451;-62
2022/01/09 06:42:15;;;;;;;23.58;3.67;;;;;;;3.98;89.71;99677.88;5045428;28;20037;-62
2022/01/09 06:44:40;;;;;;;19.40;3.92;;;;;;;3.95;90.05;99681.63;5046087;28;20495;-62
2022/01/09 06:47:06;;;;;;;19.83;3.45;;;;;;;4.03;89.28;99686.16;5046566;28;20033;-59
2022/01/09 06:49:32;;;;;;;16.02;3.40;;;;;;;4.03;89.13;99680.91;5049572;28;20141;-61
2022/01/09 06:51:58;;;;;;;19.92;3.42;;;;;;;4.12;88.62;99680.03;5053612;28;20033;-61
2022/01/09 06:54:23;;;;;;;17.92;3.45;;;;;;;4.09;88.83;99693.44;5044279;28;20055;-62
2022/01/09 06:56:48;;;;;;;17.67;3.50;;;;;;;4.08;88.32;99694.41;5035078;28;20036;-62
2022/01/09 06:59:14;;;;;;;22.75;3.38;;;;;;;4.05;88.92;99699.97;5038960;28;20029;-61
2022/01/09 07:01:39;;;;;;;17.30;3.35;;;;;;;4.10;89.41;99708.19;5039184;28;20087;-62
2022/01/09 07:04:04;;;;;;;20.75;3.85;;;;;;;4.17;88.05;99709.28;5041167;28;20053;-62
2022/01/09 07:06:29;;;;;;;21.17;3.72;;;;;;;4.04;89.04;99719.28;5037363;28;20025;-62
2022/01/09 07:08:55;;;;;;;26.98;3.90;;;;;;;4.01;89.32;99711.72;5038594;28;20025;-62
2022/01/09 07:11:20;;;;;;;19.80;3.60;;;;;;;4.10;88.39;99725.75;5044716;28;20075;-62
2022/01/09 07:13:45;;;;;;;18.73;3.20;;;;;;;4.14;88.66;99730.56;5043357;28;20040;-62
2022/01/09 07:16:11;;;;;;;17.77;3.80;;;;;;;4.15;87.67;99728.78;5040794;28;20112;-62
2022/01/09 07:18:36;;;;;;;18.58;3.40;;;;;;;4.00;89.04;99739.72;5044026;28;20862;-62
2022/01/09 07:21:03;;;;;;;15.18;3.40;;;;;;;4.00;89.10;99738.94;5041520;28;20060;-61
2022/01/09 07:23:28;;;;;;;13.20;2.38;;;;;;;4.09;88.62;99742.47;5043333;28;20132;-61
2022/01/09 07:25:54;;;;;;;16.60;3.40;;;;;;;4.06;88.84;99748.00;5039318;28;20112;-62
2022/01/09 07:28:19;;;;;;;12.45;2.63;;;;;;;4.19;88.76;99747.66;5041001;28;20411;-62
2022/01/09 07:30:44;;;;;;;16.30;3.28;;;;;;;4.01;90.07;99756.31;5039167;28;20116;-62
2022/01/09 07:33:10;;;;;;;16.30;3.17;;;;;;;3.95;89.10;99762.94;5034667;28;20025;-62
2022/01/09 07:35:35;;;;;;;23.17;4.82;;;;;;;3.95;89.05;99770.00;5038753;28;20071;-62
2022/01/09 07:38:01;;;;;;;18.38;3.70;;;;;;;3.90;89.18;99776.50;5042653;28;20052;-62
2022/01/09 07:40:28;;;;;;;17.48;3.28;;;;;;;3.77;89.67;99765.53;5037014;28;20071;-62
2022/01/09 07:42:53;;;;;;;19.50;3.13;;;;;;;3.77;90.55;99776.81;5034870;28;20052;-62
2022/01/09 07:45:23;;;;;;;16.40;3.45;;;;;;;3.75;91.10;99777.97;5038387;28;20112;-61
2022/01/09 07:47:49;;;;;;;21.48;4.28;;;;;;;3.81;90.07;99787.88;5035395;28;20423;-62
2022/01/09 07:50:14;;;;;;;16.65;3.33;;;;;;;3.90;88.40;99784.38;5038572;28;20033;-62
2022/01/09 07:52:40;;;;;;;13.15;2.78;;;;;;;3.87;88.26;99802.19;5037947;28;20029;-62
2022/01/09 07:55:07;;;;;;;11.68;2.70;;;;;;;3.77;87.22;99797.78;5040695;28;20041;-62
2022/01/09 07:57:33;;;;;;;12.18;2.47;;;;;;;3.72;87.57;99805.28;5039196;28;20393;-62
2022/01/09 08:00:00;;;;;;;12.45;2.83;;;;;;;3.77;87.08;99807.47;5041363;28;20036;-62
2022/01/09 08:02:25;;;;;;;13.52;2.88;;;;;;;3.77;87.97;99817.97;5038502;28;20419;-62
2022/01/09 08:04:50;;;;;;;12.65;2.72;;;;;;;3.68;87.76;99813.56;5041905;28;20041;-62
2022/01/09 08:07:16;;;;;;;11.57;2.42;;;;;;;3.77;86.94;99812.72;5031970;28;20037;-62
2022/01/09 08:09:44;;;;;;;13.07;3.10;;;;;;;3.62;87.60;99810.53;5036363;28;20397;-62
2022/01/09 08:12:10;;;;;;;13.65;2.80;;;;;;;3.65;88.15;99819.09;5036173;28;20033;-61
2022/01/09 08:14:38;;;;;;;14.43;2.90;;;;;;;3.65;88.49;99819.09;5037463;28;20385;-62
2022/01/09 08:17:04;;;;;;;14.23;3.13;;;;;;;3.61;88.11;99829.84;5035927;28;20033;-62
2022/01/09 08:19:30;;;;;;;16.38;3.00;;;;;;;3.63;88.18;99833.19;5035728;28;20381;-62
2022/01/09 08:21:56;;;;;;;16.92;2.88;;;;;;;3.65;88.56;99840.88;5039263;28;20033;-60
2022/01/09 08:24:21;;;;;;;15.57;3.70;;;;;;;3.66;88.85;99847.81;5040273;28;20398;-61
2022/01/09 08:26:46;;;;;;;12.90;2.90;;;;;;;3.67;88.84;99849.47;5036246;28;20045;-60
2022/01/09 08:29:12;;;;;;;14.55;3.05;;;;;;;3.62;90.13;99847.25;5035065;28;20030;-60
2022/01/09 08:31:37;;;;;;;17.95;3.28;;;;;;;3.62;89.75;99851.69;5037631;28;20021;-60
2022/01/09 08:34:02;;;;;;;16.48;3.33;;;;;;;3.55;90.55;99846.16;5038305;28;20040;-61
2022/01/09 08:36:27;;;;;;;16.23;3.20;;;;;;;3.56;90.69;99845.19;5039405;28;20040;-60
2022/01/09 08:38:53;;;;;;;17.30;3.55;;;;;;;3.65;90.24;99853.19;5039601;28;20024;-62
2022/01/09 08:41:18;;;;;;;19.88;3.40;;;;;;;3.60;91.69;99857.03;5038872;28;20384;-62
2022/01/09 08:43:43;;;;;;;16.00;3.00;;;;;;;3.62;91.58;99862.97;5044056;28;20044;-62
2022/01/09 08:46:09;;;;;;;17.80;3.42;;;;;;;3.65;91.75;99855.81;5039889;28;20057;-62
2022/01/09 08:48:34;;;;;;;18.83;3.25;;;;;;;3.61;92.16;99866.56;5038150;28;20022;-62
2022/01/09 08:50:59;;;;;;;16.98;3.25;;;;;;;3.62;92.04;99870.84;5042527;28;20044;-62
2022/01/09 08:53:25;;;;;;;20.45;3.70;;;;;;;3.60;91.69;99866.72;5038639;28;20529;-62
2022/01/09 08:55:50;;;;;;;17.00;3.33;;;;;;;3.60;91.62;99875.41;5038560;28;20110;-62
2022/01/09 08:58:15;;;;;;;16.23;3.22;;;;;;;3.60;91.88;99880.66;5038576;28;20036;-62
2022/01/09 09:00:40;;;;;;;14.20;3.15;;;;;;;3.62;90.76;99883.94;5038408;28;20037;-62
2022/01/09 09:03:06;;;;;;;20.33;3.30;;;;;;;3.68;91.03;99884.34;5036835;28;20439;-61
2022/01/09 09:05:31;;;;;;;18.63;3.53;;;;;;;3.71;90.42;99892.78;5039262;28;20033;-62
2022/01/09 09:07:58;;;;;;;17.25;3.28;;;;;;;3.69;91.18;99889.47;5044521;28;20467;-62
2022/01/09 09:10:24;;;;;;;21.58;3.63;;;;;;;3.80;90.74;99896.34;5041321;28;20447;-62
2022/01/09 09:12:49;;;;;;;18.50;3.85;;;;;;;3.88;91.54;99898.28;5039008;28;20021;-61
2022/01/09 09:15:14;;;;;;;17.98;3.47;;;;;;;4.01;89.66;99904.03;5044458;28;20071;-62
2022/01/09 09:17:40;;;;;;;19.52;3.50;;;;;;;4.03;89.98;99911.78;5045791;28;20060;-60
2022/01/09 09:20:06;;;;;;;18.77;3.60;;;;;;;4.07;89.84;99913.16;5042879;28;20476;-62
2022/01/09 09:22:31;;;;;;;19.30;4.00;;;;;;;4.06;91.14;99924.63;5045100;28;20076;-62
2022/01/09 09:24:57;;;;;;;20.15;3.83;;;;;;;4.05;91.68;99936.09;5040021;28;20033;-59
2022/01/09 09:27:29;;;;;;;16.98;3.92;;;;;;;4.07;90.76;99931.53;5044663;28;20021;-62
2022/01/09 09:29:55;;;;;;;19.65;3.80;;;;;;;4.04;92.15;99929.16;5041397;28;20029;-62
2022/01/09 09:32:20;;;;;;;18.83;3.50;;;;;;;4.11;90.50;99930.28;5040431;28;20036;-62
2022/01/09 09:34:45;;;;;;;18.52;3.90;;;;;;;4.16;90.07;99938.53;5041840;28;20029;-61
2022/01/09 09:37:11;;;;;;;24.80;4.10;;;;;;;4.14;90.48;99937.84;5041164;28;20053;-62
2022/01/09 09:39:36;;;;;;;20.15;3.80;;;;;;;4.25;88.88;99938.66;5045400;28;20473;-58
2022/01/09 09:42:01;;;;;;;16.00;3.45;;;;;;;4.28;89.13;99944.44;5039101;28;20120;-58
2022/01/09 09:44:27;;;;;;;20.02;3.75;;;;;;;4.35;88.73;99947.34;5040464;28;20045;-58
2022/01/09 09:46:53;;;;;;;16.20;3.13;;;;;;;4.40;88.61;99950.34;5040300;28;20088;-59
2022/01/09 09:49:20;;;;;;;15.90;3.42;;;;;;;4.43;88.49;99976.31;5038969;28;20036;-57
2022/01/09 09:51:45;;;;;;;16.70;3.53;;;;;;;4.49;87.38;99966.22;5040095;28;20028;-58
2022/01/09 09:54:11;;;;;;;14.88;2.85;;;;;;;4.52;86.04;99973.78;5041371;28;20029;-58
2022/01/09 09:56:36;;;;;;;16.30;3.20;;;;;;;4.48;87.28;99972.44;5043781;28;20087;-60
2022/01/09 09:59:02;;;;;;;18.55;3.92;;;;;;;4.36;87.37;99970.00;5044684;28;20032;-60
2022/01/09 10:01:33;;;;;;;13.57;2.83;;;;;;;4.38;88.57;99968.03;5043603;28;20033;-61
2022/01/09 10:04:04;;;;;;;12.85;3.20;;;;;;;4.19;89.74;99968.09;5041134;28;20051;-61
2022/01/09 10:06:49;;;;;;;18.60;3.50;;;;;;;4.24;89.97;99977.19;5041590;28;20033;-63
2022/01/09 10:09:19;;;;;;;17.55;3.40;;;;;;;4.04;90.78;99979.84;5039975;28;20037;-64
2022/01/09 10:11:50;;;;;;;18.52;3.53;;;;;;;4.04;90.70;99976.38;5039169;28;20518;-63
2022/01/09 10:14:27;;;;;;;19.92;3.60;;;;;;;4.15;92.08;99980.69;5040945;28;20057;-62
2022/01/09 10:17:16;;;;;;;17.65;3.92;;;;;;;4.14;92.30;99974.59;5029141;28;20052;-62
2022/01/09 10:19:50;;;;;;;20.00;3.78;;;;;;;4.21;92.43;99976.66;5028148;28;20387;-62
2022/01/09 10:22:30;;;;;;;21.25;3.92;;;;;;;4.31;91.77;99978.28;5036250;28;20527;-63
2022/01/09 10:24:56;;;;;;;24.23;4.63;;;;;;;4.39;91.83;99987.25;5041449;28;20021;-63
2022/01/09 10:27:30;;;;;;;26.48;4.75;;;;;;;4.42;91.67;99990.44;5036790;28;20034;-63
2022/01/09 10:29:55;;;;;;;24.85;4.43;;;;;;;4.50;91.38;99986.25;5036415;28;20047;-63
2022/01/09 10:32:24;;;;;;;19.23;3.78;;;;;;;4.50;90.29;99981.00;5033311;28;20507;-62
2022/01/09 10:35:16;;;;;;;18.25;3.83;;;;;;;4.61;90.42;99988.72;5039387;28;20483;-63
2022/01/09 10:37:44;;;;;;;24.45;5.22;;;;;;;4.66;89.62;99997.00;5032425;28;20029;-63
2022/01/09 10:40:18;;;;;;;18.95;4.93;;;;;;;4.64;89.63;99983.16;5031580;28;20501;-63
2022/01/09 10:42:43;;;;;;;23.10;4.80;;;;;;;4.71;89.89;99994.75;5039271;28;20036;-62
2022/01/09 10:45:21;;;;;;;22.30;4.30;;;;;;;4.78;89.13;100004.69;5033326;28;20029;-62
2022/01/09 10:47:48;;;;;;;18.08;4.00;;;;;;;4.80;89.19;99997.47;5032058;28;20563;-62
2022/01/09 10:50:28;;;;;;;20.05;4.43;;;;;;;4.80;88.98;100008.00;5033052;28;20108;-62
2022/01/09 10:53:17;;;;;;;22.50;3.75;;;;;;;5.01;87.84;100012.19;5036792;28;20420;-62
2022/01/09 10:55:43;;;;;;;20.27;3.95;;;;;;;4.94;87.04;100004.88;5042880;28;20029;-62
2022/01/09 10:58:20;;;;;;;19.88;3.72;;;;;;;4.99;86.93;100001.84;5042736;28;20489;-62
2022/01/09 11:00:46;;;;;;;20.73;4.18;;;;;;;4.98;87.71;100016.75;5041387;28;20438;-63
2022/01/09 11:03:11;;;;;;;18.92;4.03;;;;;;;5.04;86.90;100012.72;5036075;28;20399;-63
2022/01/09 11:05:38;;;;;;;21.42;3.80;;;;;;;5.02;88.13;100022.56;5040853;28;20029;-63
2022/01/09 11:08:04;;;;;;;24.23;4.35;;;;;;;5.18;86.79;100021.91;5044152;28;20064;-63
2022/01/09 11:10:30;;;;;;;17.35;3.42;;;;;;;5.31;85.89;100023.38;5038764;28;20118;-63
2022/01/09 11:12:59;;;;;;;16.63;3.70;;;;;;;5.29;86.37;100020.06;5037642;28;20480;-62
2022/01/09 11:15:29;;;;;;;19.17;3.95;;;;;;;5.33;87.27;100031.97;5037879;28;20091;-63
2022/01/09 11:17:58;;;;;;;21.73;3.88;;;;;;;5.38;84.87;100021.84;5040715;28;20040;-62
2022/01/09 11:20:23;;;;;;;17.13;3.67;;;;;;;5.37;84.80;100025.41;5033544;28;20452;-62
2022/01/09 11:22:50;;;;;;;18.25;3.92;;;;;;;5.42;83.83;100043.41;5036040;28;20067;-62
2022/01/09 11:25:32;;;;;;;18.60;3.60;;;;;;;5.45;83.86;100037.81;5039478;28;20437;-62
2022/01/09 11:28:12;;;;;;;19.08;3.70;;;;;;;5.35;86.59;100043.16;5038728;28;20060;-62
2022/01/09 11:31:01;;;;;;;16.98;3.40;;;;;;;5.48;85.57;100040.97;5037147;28;20538;-60